Time;durP1;ratioP1;P1;durP2;ratioP2;P2;SDS_P1;SDS_P2;PMS_P1;PMS_P2;Temp;Humidity;BMP_temperature;BMP_pressure;BME280_temperature;BME280_humidity;BME280_pressure;Samples;Min_cycle;Max_cycle;Signal;HPM_P1;HPM_P2
2023/08/19 00:00:51;;;;;;;70.80;63.50;;;20.90;94.90;;;;;;6124268;23;20041;-81
2023/08/19 00:03:17;;;;;;;70.25;63.00;;;20.90;94.90;;;;;;6124000;23;20028;-83
2023/08/19 00:05:42;;;;;;;69.43;62.30;;;20.90;94.80;;;;;;6123954;23;20037;-81
2023/08/19 00:08:08;;;;;;;69.65;62.42;;;20.90;94.80;;;;;;6099998;23;20061;-81
2023/08/19 00:10:33;;;;;;;71.63;64.20;;;20.90;94.80;;;;;;6124307;23;20005;-81
2023/08/19 00:12:59;;;;;;;67.82;60.85;;;20.90;94.80;;;;;;6123977;23;20009;-80
2023/08/19 00:15:25;;;;;;;68.82;61.80;;;20.80;94.80;;;;;;6099553;23;20477;-81
2023/08/19 00:17:50;;;;;;;67.97;61.05;;;20.90;94.80;;;;;;6123986;23;20014;-81
2023/08/19 00:20:15;;;;;;;68.95;61.75;;;20.90;94.90;;;;;;6124185;23;20009;-81
2023/08/19 00:22:41;;;;;;;69.80;62.70;;;20.80;94.90;;;;;;6123826;23;20013;-81
2023/08/19 00:25:07;;;;;;;68.32;61.22;;;20.80;94.90;;;;;;6099606;23;20002;-81
2023/08/19 00:27:33;;;;;;;68.97;61.95;;;20.80;95.00;;;;;;6124039;23;20025;-81
2023/08/19 00:29:58;;;;;;;69.63;62.42;;;20.80;95.00;;;;;;6124183;23;20429;-82
2023/08/19 00:32:24;;;;;;;67.68;60.65;;;20.80;95.00;;;;;;6099647;23;20106;-81
2023/08/19 00:34:49;;;;;;;67.45;60.53;;;20.80;95.00;;;;;;6099611;23;19998;-81
2023/08/19 00:37:15;;;;;;;67.40;60.50;;;20.80;95.00;;;;;;6124119;23;20016;-82
2023/08/19 00:39:40;;;;;;;68.68;61.47;;;20.80;94.90;;;;;;6125387;23;20006;-81
2023/08/19 00:42:09;;;;;;;67.57;60.67;;;20.80;94.90;;;;;;6099882;23;20002;-81
2023/08/19 00:44:35;;;;;;;65.82;58.90;;;20.80;95.00;;;;;;6098851;23;20006;-81
2023/08/19 00:47:01;;;;;;;66.65;59.70;;;20.80;95.00;;;;;;6099822;23;19997;-81
2023/08/19 00:49:28;;;;;;;65.57;58.78;;;20.80;95.00;;;;;;6099372;23;20348;-81
2023/08/19 00:51:55;;;;;;;66.68;59.65;;;20.70;95.00;;;;;;6123737;23;20005;-81
2023/08/19 00:54:21;;;;;;;63.15;56.72;;;20.80;95.00;;;;;;6123505;23;20010;-81
2023/08/19 00:56:46;;;;;;;63.38;56.80;;;20.80;95.00;;;;;;6123756;23;20016;-83
2023/08/19 00:59:12;;;;;;;65.38;58.65;;;20.80;95.00;;;;;;6125382;23;20468;-81
2023/08/19 01:01:37;;;;;;;64.85;58.15;;;20.70;95.00;;;;;;6125352;23;20001;-81
2023/08/19 01:04:03;;;;;;;64.25;57.65;;;20.80;95.00;;;;;;6123402;23;20503;-81
2023/08/19 01:06:51;;;;;;;63.35;56.88;;;20.70;95.00;;;;;;6099443;23;20105;-82
2023/08/19 01:09:25;;;;;;;62.33;55.83;;;20.70;95.00;;;;;;6126959;23;20441;-81
2023/08/19 01:12:02;;;;;;;64.55;57.95;;;20.80;95.00;;;;;;6125090;23;20014;-80
2023/08/19 01:14:37;;;;;;;62.42;56.00;;;20.70;95.00;;;;;;6123481;23;20009;-81
2023/08/19 01:17:03;;;;;;;63.83;57.33;;;20.80;95.00;;;;;;6125552;23;20002;-81
2023/08/19 01:19:32;;;;;;;60.60;54.33;;;20.80;95.00;;;;;;6123884;23;20445;-81
2023/08/19 01:22:08;;;;;;;61.83;55.42;;;20.80;95.00;;;;;;6125150;23;20460;-81
2023/08/19 01:24:35;;;;;;;61.92;55.60;;;20.80;95.00;;;;;;6123446;23;20021;-81
2023/08/19 01:27:03;;;;;;;62.00;55.63;;;20.80;94.90;;;;;;6123039;23;20006;-81
2023/08/19 01:29:28;;;;;;;60.70;54.60;;;20.80;94.90;;;;;;6125144;23;20000;-81
2023/08/19 01:31:54;;;;;;;62.60;56.20;;;20.90;94.80;;;;;;6099003;23;20012;-81
2023/08/19 01:34:21;;;;;;;60.90;54.70;;;20.90;94.80;;;;;;6123367;23;20013;-81
2023/08/19 01:36:53;;;;;;;60.97;54.67;;;20.80;94.70;;;;;;6099330;23;20017;-82
2023/08/19 01:39:20;;;;;;;61.58;55.28;;;20.90;94.80;;;;;;6125329;23;20002;-81
2023/08/19 01:41:47;;;;;;;60.03;53.85;;;20.90;94.70;;;;;;6123425;23;20010;-80
2023/08/19 01:44:13;;;;;;;61.83;55.53;;;20.90;94.70;;;;;;6122952;23;20010;-81
2023/08/19 01:46:38;;;;;;;60.45;54.33;;;20.90;94.80;;;;;;6099113;23;20009;-81
2023/08/19 01:49:04;;;;;;;59.65;53.65;;;20.80;94.80;;;;;;6123618;23;20002;-81
2023/08/19 01:51:30;;;;;;;60.50;54.28;;;20.80;94.80;;;;;;6123546;23;20006;-81
2023/08/19 01:53:56;;;;;;;60.60;54.40;;;20.80;94.90;;;;;;6124489;23;20138;-81
2023/08/19 01:56:21;;;;;;;58.55;52.65;;;20.80;94.90;;;;;;6123621;23;20045;-81
2023/08/19 01:58:47;;;;;;;61.00;54.70;;;20.80;94.90;;;;;;6124991;23;20009;-81
2023/08/19 02:01:13;;;;;;;61.78;55.60;;;20.80;94.90;;;;;;6098933;23;20009;-81
2023/08/19 02:03:38;;;;;;;59.33;53.33;;;20.80;95.00;;;;;;6124330;23;20468;-82
2023/08/19 02:06:04;;;;;;;58.92;52.97;;;20.70;94.90;;;;;;6123457;23;20002;-81
2023/08/19 02:08:30;;;;;;;58.17;52.10;;;20.70;95.00;;;;;;6123420;23;20002;-81
2023/08/19 02:10:55;;;;;;;57.72;51.83;;;20.80;95.00;;;;;;6123355;23;20006;-80
2023/08/19 02:13:21;;;;;;;55.88;50.20;;;20.80;95.00;;;;;;6122045;23;20009;-80
2023/08/19 02:15:46;;;;;;;58.85;52.85;;;20.80;95.00;;;;;;6124389;23;20017;-80
2023/08/19 02:18:12;;;;;;;55.60;49.95;;;20.70;95.00;;;;;;6098878;23;20017;-80
2023/08/19 02:20:37;;;;;;;56.92;51.15;;;20.70;94.90;;;;;;6099045;23;20005;-80
2023/08/19 02:23:03;;;;;;;57.17;51.20;;;20.70;94.90;;;;;;6124370;23;20065;-80
2023/08/19 02:25:29;;;;;;;55.67;50.08;;;20.70;95.00;;;;;;6122936;23;20045;-80
2023/08/19 02:27:54;;;;;;;54.10;48.63;;;20.70;95.00;;;;;;6122890;23;20326;-80
2023/08/19 02:30:20;;;;;;;54.53;49.05;;;20.80;95.00;;;;;;6124795;23;20132;-80
2023/08/19 02:32:45;;;;;;;55.78;49.95;;;20.70;94.90;;;;;;6123066;23;19998;-80
2023/08/19 02:35:11;;;;;;;55.67;50.08;;;20.70;95.00;;;;;;6122842;23;20038;-80
2023/08/19 02:37:37;;;;;;;54.65;49.20;;;20.70;95.00;;;;;;6124749;23;20029;-80
2023/08/19 02:40:04;;;;;;;55.25;49.65;;;20.70;95.00;;;;;;6098841;23;20340;-80
2023/08/19 02:42:29;;;;;;;55.17;49.47;;;20.70;95.00;;;;;;6098775;23;20008;-80
2023/08/19 02:44:55;;;;;;;57.08;51.17;;;20.80;95.00;;;;;;6122530;23;20085;-80
2023/08/19 02:47:20;;;;;;;55.22;49.63;;;20.80;95.00;;;;;;6123111;23;20002;-80
2023/08/19 02:49:46;;;;;;;55.15;49.67;;;20.70;94.90;;;;;;6123093;23;20006;-80
2023/08/19 02:52:11;;;;;;;53.70;48.22;;;20.80;94.90;;;;;;6124395;23;20034;-80
2023/08/19 02:54:37;;;;;;;53.05;47.65;;;20.80;94.90;;;;;;6124498;23;20006;-80
2023/08/19 02:57:03;;;;;;;53.25;47.83;;;20.80;94.90;;;;;;6125225;23;20013;-80
2023/08/19 02:59:28;;;;;;;53.67;48.25;;;20.80;94.80;;;;;;6125010;23;20013;-80
2023/08/19 03:01:54;;;;;;;52.55;47.20;;;20.80;94.80;;;;;;6124991;23;20341;-80
2023/08/19 03:04:19;;;;;;;54.47;48.92;;;20.90;94.80;;;;;;6125911;23;20033;-80
2023/08/19 03:06:45;;;;;;;53.47;48.08;;;20.90;94.70;;;;;;6124584;23;20385;-80
2023/08/19 03:09:10;;;;;;;54.08;48.55;;;20.80;94.70;;;;;;6124784;23;20445;-81
2023/08/19 03:11:36;;;;;;;51.80;46.53;;;20.80;94.70;;;;;;6124785;23;20009;-80
2023/08/19 03:14:02;;;;;;;53.13;47.78;;;20.90;94.70;;;;;;6124428;23;20013;-81
2023/08/19 03:16:28;;;;;;;50.50;45.40;;;20.90;94.70;;;;;;6124799;23;20002;-80
2023/08/19 03:18:54;;;;;;;52.53;47.17;;;20.80;94.70;;;;;;6126216;23;20097;-80
2023/08/19 03:21:19;;;;;;;51.85;46.55;;;20.90;94.80;;;;;;6126250;23;20378;-80
2023/08/19 03:23:45;;;;;;;52.38;47.03;;;20.80;94.80;;;;;;6124002;23;20032;-80
2023/08/19 03:26:10;;;;;;;51.05;45.72;;;20.80;94.80;;;;;;6124915;23;20006;-80
2023/08/19 03:28:36;;;;;;;53.20;47.78;;;20.80;94.90;;;;;;6124204;23;20061;-80
2023/08/19 03:31:09;;;;;;;52.28;46.97;;;20.80;94.90;;;;;;6126080;23;20002;-80
2023/08/19 03:33:34;;;;;;;51.95;46.65;;;20.80;94.90;;;;;;6125609;23;20009;-80
2023/08/19 03:36:00;;;;;;;52.65;47.25;;;20.80;94.90;;;;;;6100317;23;20303;-80
2023/08/19 03:38:26;;;;;;;51.22;46.03;;;20.70;94.90;;;;;;6126056;23;19998;-80
2023/08/19 03:40:52;;;;;;;49.38;44.38;;;20.70;94.90;;;;;;6125857;23;20010;-80
2023/08/19 03:43:17;;;;;;;50.60;45.40;;;20.70;94.90;;;;;;6124272;23;20390;-80
2023/08/19 03:45:43;;;;;;;49.97;44.88;;;20.70;94.90;;;;;;6099737;23;20010;-80
2023/08/19 03:48:08;;;;;;;50.97;45.72;;;20.70;94.90;;;;;;6124524;23;20002;-80
2023/08/19 03:50:34;;;;;;;48.38;43.53;;;20.70;94.90;;;;;;6125846;23;20426;-80
2023/08/19 03:52:59;;;;;;;49.95;44.85;;;20.70;94.90;;;;;;6099980;23;20034;-80
2023/08/19 03:55:25;;;;;;;52.17;46.88;;;20.70;94.90;;;;;;6125560;23;20061;-80
2023/08/19 03:57:51;;;;;;;49.55;44.53;;;20.70;94.90;;;;;;6124574;23;20010;-80
2023/08/19 04:00:16;;;;;;;48.95;44.00;;;20.70;94.90;;;;;;6124293;23;20430;-80
2023/08/19 04:02:42;;;;;;;51.17;45.88;;;20.70;94.90;;;;;;6124012;23;20009;-80
2023/08/19 04:05:10;;;;;;;49.65;44.50;;;20.70;94.90;;;;;;6125386;23;20013;-80
2023/08/19 04:07:36;;;;;;;49.30;44.42;;;20.70;94.90;;;;;;6099704;23;20009;-80
2023/08/19 04:10:03;;;;;;;49.97;44.97;;;20.70;94.90;;;;;;6124111;23;20010;-80
2023/08/19 04:12:29;;;;;;;48.50;43.60;;;20.70;94.90;;;;;;6123512;23;20021;-80
2023/08/19 04:14:54;;;;;;;50.15;45.05;;;20.70;94.90;;;;;;6123792;23;20010;-80
2023/08/19 04:17:20;;;;;;;49.97;44.97;;;20.70;94.90;;;;;;6124122;23;20437;-80
2023/08/19 04:19:45;;;;;;;51.25;46.03;;;20.70;94.90;;;;;;6125715;23;20030;-80
2023/08/19 04:22:15;;;;;;;48.83;43.80;;;20.60;94.90;;;;;;6125672;23;20446;-80
2023/08/19 04:24:41;;;;;;;47.60;42.80;;;20.80;94.90;;;;;;6123654;23;20032;-80
2023/08/19 04:27:06;;;;;;;47.45;42.65;;;20.80;94.90;;;;;;6123183;23;20005;-80
2023/08/19 04:29:32;;;;;;;47.30;42.53;;;20.80;94.80;;;;;;6123632;23;20057;-80
2023/08/19 04:32:03;;;;;;;48.55;43.65;;;20.80;94.80;;;;;;6125396;23;20061;-80
2023/08/19 04:34:29;;;;;;;47.00;42.30;;;20.80;94.70;;;;;;6123614;23;20046;-80
2023/08/19 04:36:55;;;;;;;47.40;42.50;;;20.80;94.70;;;;;;6099401;23;20448;-80
2023/08/19 04:39:21;;;;;;;47.85;43.00;;;20.90;94.90;;;;;;6123988;23;20041;-80
2023/08/19 04:41:47;;;;;;;46.78;42.08;;;20.90;94.60;;;;;;6123864;23;20013;-80
2023/08/19 04:44:12;;;;;;;46.88;42.13;;;20.90;94.60;;;;;;6124750;23;20014;-80
2023/08/19 04:46:38;;;;;;;44.08;39.65;;;21.60;94.80;;;;;;6125582;23;20496;-80
2023/08/19 04:49:05;;;;;;;45.75;41.15;;;20.90;94.60;;;;;;6123903;23;19998;-80
2023/08/19 04:51:31;;;;;;;46.35;41.65;;;20.80;94.60;;;;;;6123736;23;20065;-80
2023/08/19 04:53:56;;;;;;;47.28;42.50;;;20.80;94.70;;;;;;6124992;23;20325;-81
2023/08/19 04:56:22;;;;;;;46.60;41.80;;;20.80;94.70;;;;;;6125272;23;20006;-80
2023/08/19 04:58:47;;;;;;;46.45;41.75;;;20.80;94.70;;;;;;6123649;23;20452;-80
2023/08/19 05:01:13;;;;;;;46.03;41.35;;;20.80;94.70;;;;;;6123735;23;20002;-80
2023/08/19 05:03:39;;;;;;;46.80;42.10;;;20.80;94.70;;;;;;6123312;23;20119;-80
2023/08/19 05:06:05;;;;;;;46.38;41.67;;;20.80;94.70;;;;;;6125158;23;20015;-80
2023/08/19 05:08:30;;;;;;;46.30;41.65;;;20.80;94.70;;;;;;6099601;23;20429;-80
2023/08/19 05:10:56;;;;;;;45.30;40.72;;;20.80;94.70;;;;;;6123650;23;20005;-80
2023/08/19 05:13:21;;;;;;;45.63;40.97;;;20.80;94.70;;;;;;6123501;23;20398;-80
2023/08/19 05:15:47;;;;;;;44.50;40.00;;;20.80;94.70;;;;;;6124458;23;20341;-80
2023/08/19 05:18:12;;;;;;;45.28;40.65;;;20.80;94.70;;;;;;6125168;23;20433;-80
2023/08/19 05:20:38;;;;;;;44.13;39.63;;;20.80;94.70;;;;;;6124961;23;20021;-81
2023/08/19 05:23:04;;;;;;;44.53;40.08;;;20.80;94.70;;;;;;6099174;23;20322;-80
2023/08/19 05:25:29;;;;;;;44.33;39.83;;;20.80;94.70;;;;;;6123369;23;20013;-80
2023/08/19 05:27:56;;;;;;;44.72;40.20;;;20.80;94.60;;;;;;6098843;23;20001;-80
2023/08/19 05:30:22;;;;;;;45.38;40.88;;;20.80;94.70;;;;;;6123619;23;20021;-80
2023/08/19 05:32:48;;;;;;;43.92;39.50;;;20.80;94.60;;;;;;6123308;23;20337;-80
2023/08/19 05:35:13;;;;;;;44.35;39.92;;;20.80;94.60;;;;;;6123316;23;20286;-80
2023/08/19 05:37:39;;;;;;;43.13;38.83;;;20.80;94.60;;;;;;6124916;23;20012;-80
2023/08/19 05:40:05;;;;;;;42.60;38.30;;;20.80;94.60;;;;;;6099100;23;20005;-80
2023/08/19 05:42:31;;;;;;;43.60;39.22;;;20.80;94.50;;;;;;6123467;23;20458;-80
2023/08/19 05:44:56;;;;;;;43.70;39.33;;;20.90;94.60;;;;;;6122784;23;20017;-80
2023/08/19 05:47:22;;;;;;;44.13;39.65;;;20.90;94.50;;;;;;6124902;23;19998;-80
2023/08/19 05:49:48;;;;;;;43.78;39.33;;;20.90;94.50;;;;;;6098825;23;20010;-80
2023/08/19 05:52:13;;;;;;;41.58;37.40;;;20.90;94.50;;;;;;6123417;23;20077;-80
2023/08/19 05:54:39;;;;;;;42.42;38.13;;;20.90;94.40;;;;;;6123063;23;20445;-80
2023/08/19 05:57:05;;;;;;;42.30;38.00;;;20.90;94.40;;;;;;6124789;23;20006;-80
2023/08/19 05:59:30;;;;;;;43.22;38.92;;;20.90;94.30;;;;;;6123392;23;20025;-80
2023/08/19 06:01:56;;;;;;;41.50;37.30;;;21.00;94.20;;;;;;6099100;23;20010;-80
2023/08/19 06:04:21;;;;;;;41.00;36.90;;;21.00;94.10;;;;;;6098927;23;20010;-80
2023/08/19 06:06:48;;;;;;;41.15;37.05;;;21.00;94.10;;;;;;6098919;23;20345;-80
2023/08/19 06:09:13;;;;;;;42.22;37.92;;;21.00;94.10;;;;;;6123532;23;20006;-80
2023/08/19 06:11:47;;;;;;;40.90;36.78;;;21.00;94.00;;;;;;6123085;23;20082;-80
2023/08/19 06:14:13;;;;;;;41.20;37.08;;;21.10;94.00;;;;;;6124413;23;20002;-80
2023/08/19 06:16:40;;;;;;;41.35;37.22;;;21.10;93.90;;;;;;6124698;23;20017;-80
2023/08/19 06:19:05;;;;;;;40.63;36.55;;;21.10;93.90;;;;;;6123253;23;20348;-80
2023/08/19 06:21:30;;;;;;;41.10;36.90;;;21.10;93.90;;;;;;6123202;23;20049;-80
2023/08/19 06:23:56;;;;;;;40.13;36.03;;;21.10;93.90;;;;;;6122693;23;20006;-80
2023/08/19 06:26:21;;;;;;;39.75;35.80;;;21.10;93.90;;;;;;6125526;23;19998;-80
2023/08/19 06:28:47;;;;;;;40.47;36.47;;;21.10;93.90;;;;;;6126386;23;20049;-80
2023/08/19 06:31:13;;;;;;;40.72;36.55;;;21.10;93.90;;;;;;6126821;23;20501;-80
2023/08/19 06:33:38;;;;;;;41.13;36.92;;;21.10;93.90;;;;;;6124534;23;20049;-80
2023/08/19 06:36:06;;;;;;;40.15;36.13;;;21.10;93.90;;;;;;6126695;23;20001;-80
2023/08/19 06:38:33;;;;;;;39.25;35.35;;;21.10;94.10;;;;;;6126493;23;20515;-80
2023/08/19 06:41:04;;;;;;;38.63;34.72;;;21.10;93.90;;;;;;6124958;23;20061;-80
2023/08/19 06:43:31;;;;;;;38.45;34.58;;;21.10;93.90;;;;;;6126147;23;20451;-78
2023/08/19 06:45:57;;;;;;;39.85;35.85;;;21.10;93.90;;;;;;6126204;23;20014;-80
2023/08/19 06:48:24;;;;;;;40.03;36.00;;;21.10;93.90;;;;;;6126408;23;20073;-80
2023/08/19 06:50:51;;;;;;;38.60;34.70;;;21.10;93.90;;;;;;6124809;23;20073;-80
2023/08/19 06:53:16;;;;;;;38.65;34.75;;;21.10;93.90;;;;;;6100488;23;20352;-80
2023/08/19 06:55:50;;;;;;;39.47;35.47;;;21.10;93.80;;;;;;6126087;23;20069;-80
2023/08/19 06:58:22;;;;;;;39.60;35.60;;;21.10;93.80;;;;;;6126514;23;20005;-80
2023/08/19 07:00:49;;;;;;;37.90;34.10;;;21.20;93.80;;;;;;6126581;23;20108;-80
2023/08/19 07:03:17;;;;;;;37.88;34.10;;;21.20;93.70;;;;;;6100277;23;20085;-80
2023/08/19 07:05:42;;;;;;;37.22;33.42;;;21.20;93.70;;;;;;6126361;23;20005;-80
2023/08/19 07:08:10;;;;;;;37.85;34.05;;;21.20;93.60;;;;;;6124849;23;19998;-80
2023/08/19 07:10:36;;;;;;;37.03;33.30;;;21.30;93.60;;;;;;6126398;23;20002;-81
2023/08/19 07:13:03;;;;;;;36.92;33.22;;;21.30;93.50;;;;;;6124598;23;20006;-80
2023/08/19 07:15:29;;;;;;;37.53;33.72;;;21.30;93.50;;;;;;6124476;23;20001;-81
2023/08/19 07:17:59;;;;;;;38.03;34.22;;;21.30;93.50;;;;;;6124648;23;20005;-81
2023/08/19 07:20:25;;;;;;;38.13;34.20;;;21.30;93.60;;;;;;6124629;23;20009;-80
2023/08/19 07:22:52;;;;;;;36.92;33.22;;;21.30;93.60;;;;;;6124569;23;20441;-81
2023/08/19 07:25:19;;;;;;;37.47;33.72;;;21.30;93.50;;;;;;6124617;23;20378;-80
2023/08/19 07:27:45;;;;;;;36.42;32.72;;;21.30;93.50;;;;;;6124486;23;20030;-81
2023/08/19 07:30:12;;;;;;;36.20;32.50;;;21.30;93.50;;;;;;6126408;23;20001;-81
2023/08/19 07:32:38;;;;;;;36.45;32.85;;;21.30;93.50;;;;;;6124391;23;20002;-81
2023/08/19 07:35:05;;;;;;;36.38;32.75;;;21.30;93.50;;;;;;6124272;23;20002;-81
2023/08/19 07:37:31;;;;;;;36.83;33.13;;;21.30;93.50;;;;;;6124127;23;20009;-80
2023/08/19 07:39:57;;;;;;;35.70;32.10;;;21.30;93.50;;;;;;6124495;23;20006;-81
2023/08/19 07:42:24;;;;;;;35.08;31.58;;;21.30;93.60;;;;;;6126308;23;20002;-81
2023/08/19 07:44:49;;;;;;;35.63;32.05;;;21.30;93.60;;;;;;6123873;23;20064;-80
2023/08/19 07:47:15;;;;;;;36.10;32.50;;;21.30;93.60;;;;;;6124698;23;20010;-81
2023/08/19 07:49:40;;;;;;;35.30;31.70;;;21.30;93.60;;;;;;6124386;23;20306;-81
2023/08/19 07:52:06;;;;;;;35.25;31.65;;;21.30;93.70;;;;;;6125986;23;20009;-81
2023/08/19 07:54:31;;;;;;;35.45;31.95;;;21.20;93.70;;;;;;6099719;23;20014;-81
2023/08/19 07:56:58;;;;;;;35.35;31.75;;;21.20;93.80;;;;;;6124353;23;20437;-81
2023/08/19 07:59:25;;;;;;;36.58;32.88;;;21.20;93.80;;;;;;6124484;23;20478;-81
2023/08/19 08:01:50;;;;;;;35.10;31.60;;;21.20;93.90;;;;;;6125921;23;20010;-81
2023/08/19 08:04:16;;;;;;;35.20;31.65;;;21.20;94.10;;;;;;6125475;23;20333;-80
2023/08/19 08:06:42;;;;;;;35.03;31.52;;;21.20;93.90;;;;;;6100090;23;20002;-81
2023/08/19 08:09:07;;;;;;;33.67;30.30;;;21.20;93.90;;;;;;6125703;23;20009;-82
2023/08/19 08:11:33;;;;;;;34.83;31.30;;;21.10;93.90;;;;;;6124166;23;20006;-80
2023/08/19 08:13:58;;;;;;;34.28;30.88;;;21.20;93.90;;;;;;6124194;23;20017;-79
2023/08/19 08:16:24;;;;;;;34.05;30.65;;;21.20;93.90;;;;;;6099785;23;20025;-81
2023/08/19 08:18:49;;;;;;;33.70;30.27;;;21.20;93.80;;;;;;6099714;23;20013;-81
2023/08/19 08:21:15;;;;;;;33.42;30.13;;;21.30;93.80;;;;;;6124567;23;20006;-81
2023/08/19 08:23:41;;;;;;;34.20;30.73;;;21.30;93.70;;;;;;6123692;23;20670;-81
2023/08/19 08:26:06;;;;;;;32.65;29.40;;;21.30;93.70;;;;;;6099778;23;20010;-80
2023/08/19 08:28:32;;;;;;;33.83;30.42;;;21.30;93.70;;;;;;6123889;23;20024;-81
2023/08/19 08:30:58;;;;;;;33.15;29.92;;;21.20;93.70;;;;;;6099891;23;20520;-81
2023/08/19 08:33:25;;;;;;;33.45;30.05;;;21.30;93.70;;;;;;6123991;23;20009;-80
2023/08/19 08:35:51;;;;;;;33.42;30.13;;;21.20;93.70;;;;;;6123898;23;20378;-81
2023/08/19 08:38:16;;;;;;;33.53;30.10;;;21.20;93.70;;;;;;6099611;23;20045;-80
2023/08/19 08:40:42;;;;;;;33.97;30.48;;;21.20;93.80;;;;;;6123750;23;20044;-81
2023/08/19 08:43:07;;;;;;;31.83;28.63;;;21.20;93.80;;;;;;6125422;23;20036;-81
2023/08/19 08:45:34;;;;;;;32.30;29.10;;;21.10;93.80;;;;;;6125251;23;20037;-81
2023/08/19 08:48:01;;;;;;;32.42;29.13;;;21.20;93.80;;;;;;6125355;23;20434;-80
2023/08/19 08:50:27;;;;;;;32.53;29.33;;;21.20;93.90;;;;;;6125682;23;20013;-81
2023/08/19 08:52:54;;;;;;;32.83;29.52;;;21.20;93.90;;;;;;6099287;23;20345;-81
2023/08/19 08:55:20;;;;;;;32.53;29.23;;;21.20;93.80;;;;;;6125055;23;20062;-81
2023/08/19 08:57:45;;;;;;;31.23;28.13;;;21.30;93.80;;;;;;6123902;23;20349;-81
2023/08/19 09:00:12;;;;;;;31.88;28.73;;;21.30;93.70;;;;;;6123649;23;20010;-81
2023/08/19 09:02:43;;;;;;;31.35;28.25;;;21.30;93.70;;;;;;6123766;23;20010;-80
2023/08/19 09:05:09;;;;;;;31.23;28.13;;;21.30;93.90;;;;;;6125063;23;20464;-81
2023/08/19 09:07:42;;;;;;;31.95;28.77;;;21.30;93.60;;;;;;6123617;23;20069;-81
2023/08/19 09:10:15;;;;;;;31.27;28.08;;;21.40;93.60;;;;;;6125346;23;20025;-81
2023/08/19 09:12:49;;;;;;;30.38;27.38;;;21.40;93.60;;;;;;6125038;23;19997;-81
2023/08/19 09:15:17;;;;;;;30.08;27.08;;;21.40;93.50;;;;;;6123818;23;20060;-80
2023/08/19 09:17:43;;;;;;;30.38;27.33;;;21.40;93.50;;;;;;6123907;23;20392;-80
2023/08/19 09:20:12;;;;;;;32.03;28.83;;;21.40;93.50;;;;;;6123607;23;20005;-81
2023/08/19 09:22:41;;;;;;;31.40;28.20;;;21.40;93.50;;;;;;6125358;23;20337;-81
2023/08/19 09:25:07;;;;;;;30.75;27.65;;;21.40;93.40;;;;;;6123248;23;20038;-81
2023/08/19 09:27:33;;;;;;;31.27;28.08;;;21.50;93.40;;;;;;6098584;23;20441;-81
2023/08/19 09:29:59;;;;;;;30.50;27.42;;;21.50;93.40;;;;;;6123519;23;20084;-81
2023/08/19 09:32:28;;;;;;;29.83;26.80;;;21.50;93.40;;;;;;6125172;23;19994;-81
2023/08/19 09:35:08;;;;;;;30.42;27.33;;;21.50;93.40;;;;;;6123160;23;20089;-81
2023/08/19 09:37:35;;;;;;;30.50;27.40;;;21.50;93.40;;;;;;6125105;23;20013;-81
2023/08/19 09:40:17;;;;;;;29.95;26.98;;;21.50;93.40;;;;;;6125041;23;20006;-81
2023/08/19 09:42:47;;;;;;;29.85;26.85;;;21.50;93.40;;;;;;6125018;23;20005;-81
2023/08/19 09:45:20;;;;;;;29.45;26.50;;;21.50;93.30;;;;;;6122713;23;20024;-81
2023/08/19 09:47:50;;;;;;;28.98;26.08;;;21.60;93.40;;;;;;6125139;23;20002;-81
2023/08/19 09:50:17;;;;;;;29.38;26.40;;;21.60;93.30;;;;;;6099036;23;20052;-80
2023/08/19 09:52:53;;;;;;;30.25;27.25;;;21.60;93.30;;;;;;6125286;23;20002;-81
2023/08/19 09:55:26;;;;;;;28.73;25.83;;;21.60;93.30;;;;;;6124658;23;20006;-80
2023/08/19 09:57:52;;;;;;;29.15;26.20;;;21.60;93.30;;;;;;6123318;23;20008;-81
2023/08/19 10:00:18;;;;;;;27.20;24.50;;;21.60;93.20;;;;;;6123267;23;20065;-81
2023/08/19 10:02:44;;;;;;;27.55;24.75;;;21.60;93.20;;;;;;6123242;23;20006;-81
2023/08/19 10:05:09;;;;;;;28.75;25.85;;;21.70;93.20;;;;;;6123022;23;20013;-81
2023/08/19 10:07:38;;;;;;;28.08;25.27;;;21.70;93.20;;;;;;6123392;23;20006;-81
2023/08/19 10:10:05;;;;;;;27.00;24.30;;;21.70;93.20;;;;;;6099000;23;20036;-81
2023/08/19 10:12:39;;;;;;;28.48;25.58;;;21.60;93.20;;;;;;6123262;23;20028;-81
2023/08/19 10:15:10;;;;;;;27.10;24.40;;;21.60;93.20;;;;;;6122931;23;20489;-82
2023/08/19 10:17:39;;;;;;;26.98;24.27;;;21.60;93.30;;;;;;6099384;23;20006;-82
2023/08/19 10:20:10;;;;;;;26.60;23.77;;;21.60;93.50;;;;;;6124988;23;20121;-82
2023/08/19 10:22:39;;;;;;;24.38;21.42;;;21.60;94.20;;;;;;6124952;23;20435;-82
2023/08/19 10:25:06;;;;;;;21.50;19.20;;;21.60;94.10;;;;;;6098614;23;20010;-82
2023/08/19 10:27:32;;;;;;;20.52;17.40;;;21.60;94.10;;;;;;6123011;23;20006;-81
2023/08/19 10:29:58;;;;;;;19.35;16.48;;;21.60;94.40;;;;;;6124948;23;20073;-81
2023/08/19 10:32:32;;;;;;;18.00;16.10;;;21.60;94.60;;;;;;6099078;23;20448;-81
2023/08/19 10:35:12;;;;;;;18.80;16.80;;;21.60;94.60;;;;;;6122989;23;20010;-81
2023/08/19 10:37:42;;;;;;;20.70;15.95;;;21.50;94.70;;;;;;6123636;23;20010;-81
2023/08/19 10:40:11;;;;;;;18.77;15.43;;;21.60;95.00;;;;;;6123201;23;20089;-81
2023/08/19 10:42:37;;;;;;;16.38;14.32;;;21.60;95.10;;;;;;6100771;23;20030;-83
2023/08/19 10:45:05;;;;;;;17.90;14.15;;;21.60;95.20;;;;;;6129477;23;20014;-83
2023/08/19 10:47:31;;;;;;;14.75;13.23;;;21.50;95.20;;;;;;6129607;23;20096;-82
2023/08/19 10:50:04;;;;;;;16.40;13.07;;;21.50;95.20;;;;;;6128531;23;20692;-83
2023/08/19 10:52:30;;;;;;;14.60;13.10;;;21.50;95.20;;;;;;6104225;23;20441;-84
2023/08/19 10:54:59;;;;;;;15.15;12.90;;;21.50;95.20;;;;;;6127939;23;20048;-82
2023/08/19 10:57:27;;;;;;;14.50;13.00;;;21.40;95.10;;;;;;6129626;23;20010;-82
2023/08/19 11:00:05;;;;;;;14.55;11.90;;;21.40;95.20;;;;;;6128139;23;20045;-82
2023/08/19 11:02:31;;;;;;;12.80;11.38;;;21.40;95.40;;;;;;6128267;23;20080;-84
2023/08/19 11:04:58;;;;;;;15.13;12.15;;;21.40;95.30;;;;;;6128843;23;20013;-83
2023/08/19 11:07:25;;;;;;;13.52;11.90;;;21.30;95.40;;;;;;6129238;23;20344;-82
2023/08/19 11:09:54;;;;;;;13.93;12.05;;;21.30;95.30;;;;;;6129247;23;20049;-82
2023/08/19 11:12:21;;;;;;;14.60;12.30;;;21.30;95.30;;;;;;6128598;23;20002;-81
2023/08/19 11:14:48;;;;;;;12.63;11.30;;;21.30;95.40;;;;;;6129817;23;20057;-83
2023/08/19 11:17:13;;;;;;;12.60;10.52;;;21.30;95.30;;;;;;6129959;23;20052;-83
2023/08/19 11:19:39;;;;;;;11.93;10.65;;;21.30;95.30;;;;;;6130138;23;20334;-82
2023/08/19 11:22:05;;;;;;;12.10;10.38;;;21.40;95.40;;;;;;6131397;23;20013;-82
2023/08/19 11:24:33;;;;;;;13.45;10.85;;;21.30;95.30;;;;;;6130587;23;20006;-83
2023/08/19 11:26:59;;;;;;;12.90;11.05;;;21.30;95.40;;;;;;6130977;23;20443;-83
2023/08/19 11:29:24;;;;;;;13.15;10.35;;;21.30;95.30;;;;;;6131597;23;20026;-82
2023/08/19 11:31:50;;;;;;;12.02;9.70;;;21.30;95.30;;;;;;6129081;23;20006;-82
2023/08/19 11:34:15;;;;;;;10.95;9.70;;;21.30;95.30;;;;;;6104323;23;20057;-82
2023/08/19 11:36:45;;;;;;;10.95;9.50;;;21.30;95.30;;;;;;6104125;23;20045;-82
2023/08/19 11:39:11;;;;;;;11.23;9.55;;;21.30;95.40;;;;;;6103707;23;20033;-83
2023/08/19 11:41:37;;;;;;;11.38;9.35;;;21.30;95.40;;;;;;6129712;23;20006;-81
2023/08/19 11:44:04;;;;;;;11.45;9.35;;;21.20;95.50;;;;;;6128648;23;20081;-81
2023/08/19 11:46:30;;;;;;;10.38;8.95;;;21.30;95.50;;;;;;6103904;23;20016;-81
2023/08/19 11:49:04;;;;;;;10.30;9.20;;;21.20;95.50;;;;;;6103281;23;20005;-82
2023/08/19 11:51:30;;;;;;;10.63;8.68;;;21.30;95.80;;;;;;6102888;23;19998;-82
2023/08/19 11:54:03;;;;;;;10.10;8.60;;;21.30;95.90;;;;;;6102466;23;20012;-81
2023/08/19 11:56:29;;;;;;;9.85;8.43;;;21.20;96.00;;;;;;6102652;23;20006;-82
2023/08/19 11:58:55;;;;;;;9.80;8.55;;;21.30;95.90;;;;;;6101919;23;20041;-83
2023/08/19 12:01:22;;;;;;;11.38;8.88;;;21.30;96.00;;;;;;6102445;23;20006;-82
2023/08/19 12:03:52;;;;;;;11.15;8.20;;;21.30;96.00;;;;;;6101886;23;20096;-82
2023/08/19 12:06:18;;;;;;;10.40;7.95;;;21.30;96.00;;;;;;6128482;23;20005;-82
2023/08/19 12:08:45;;;;;;;10.23;7.60;;;21.30;96.00;;;;;;6102143;23;20002;-81
2023/08/19 12:11:12;;;;;;;10.00;8.27;;;21.30;96.00;;;;;;6127803;23;20002;-82
2023/08/19 12:13:38;;;;;;;9.18;7.53;;;21.30;96.00;;;;;;6100826;23;20033;-82
2023/08/19 12:16:06;;;;;;;9.43;7.80;;;21.30;95.90;;;;;;6128334;23;20336;-80
2023/08/19 12:18:33;;;;;;;8.82;7.45;;;21.40;96.00;;;;;;6127719;23;20012;-82
2023/08/19 12:21:00;;;;;;;9.55;7.57;;;21.30;96.00;;;;;;6101866;23;20437;-82
2023/08/19 12:23:27;;;;;;;10.38;7.60;;;21.30;95.90;;;;;;6100365;23;20006;-79
2023/08/19 12:25:54;;;;;;;8.77;7.07;;;21.30;95.90;;;;;;6100383;23;20012;-83